Portada
METAR-TAF:

METAR-TAF

Aeropuertos :

Terceira, Azores, Portugal

latitud: 38-46N, longitud: 027-06W, altitud: 52 m

Observación

El informe se hizo hace 44 minutos, a las 06:00 UTC
Temperatura 15°C
Humedad 72%
Presión 1035 hPa
Visibilidad 10 km o más
Cielo nuboso a una altura de 3000 ft

METAR: LPLA 270600Z /////KT 9999 BKN030 15/10 Q1035

Hora: 05:44 (06:44 UTC)

Pronóstico

El informe se hizo hace 1 hora y 39 minutos, a las 05:05 UTC
Pronóstico válido del 27 a las 06 UTC al 28 a las 06 UTC
Viento 12 kt del este-sureste
Visibilidad 10 km o más
Cielo nuboso a una altura de 3000 ft
Evolucionando progresivamente
del 27 a las 12 UTC al 27 a las 14 UTC
Viento 5 kt del sur

TAF: LPLA 270505Z 2706/2806 12012KT 9999 BKN030 BECMG 2712/2714 18005KT

Observaciones y pronósticos meteorológicos de más de 4000 aeropuertos (mensajes METAR y TAF).

Los puntos amarillos y rojos representan las estaciones disponibles.

Ponga el ratón en el punto deseado para ver el nombre de la estación.

Haga clic para ver las observaciones y los pronósticos meteorológicos.

Para cambiar el mapa : haga clic en los botones verdes con una cruz de color negro para hacer un zoom, en el botón verde con un guión para alejar o en las flechas verdes para mapas adyacentes.


METAR-TAF: